ADDS METAR Data INFO
IDs: Format: Raw Decoded Include TAF

Data at: 1009 UTC 12 Dec 2017

KGAO 120955Z AUTO 25007KT 10SM CLR 12/09 A3011 RMK AO2 T01160086
KGAO 120935Z AUTO 24008KT 10SM CLR 11/09 A3011 RMK AO2 T01130085
KGAO 120915Z AUTO 24008KT 10SM CLR 11/08 A3011 RMK AO2 T01100084
KGAO 120855Z AUTO 24007KT 10SM CLR 11/08 A3011 RMK AO2 T01080081
KGAO 120835Z AUTO 25007KT 10SM CLR 11/08 A3012 RMK AO2 T01140084
KGAO 120815Z AUTO 26007KT 10SM CLR 12/08 A3012 RMK AO2 T01150084
KGAO 120755Z AUTO 26007KT 10SM CLR 11/08 A3012 RMK AO2 T01140083
KGAO 120735Z AUTO 26007KT 10SM CLR 11/08 A3012 RMK AO2 T01090080
KGAO 120715Z AUTO 25005KT 10SM CLR 10/08 A3012 RMK AO2 T01010075
KGAO 120655Z AUTO 24006KT 10SM CLR 10/08 A3012 RMK AO2 T01000075
KGAO 120635Z AUTO 24006KT 10SM CLR 11/08 A3013 RMK AO2 T01080076
KGAO 120615Z AUTO 23006KT 10SM CLR 11/08 A3013 RMK AO2 T01060076
KGAO 120555Z AUTO 24006KT 10SM CLR 11/08 A3013 RMK AO2 T01060075 10110 20097 401811010
KGAO 120535Z AUTO 24006KT 10SM CLR 10/07 A3014 RMK AO2 T01040073
KGAO 120515Z AUTO 23006KT 10SM CLR 11/08 A3015 RMK AO2 T01060075
KGAO 120455Z AUTO 24007KT 10SM CLR 10/07 A3016 RMK AO2 T01020072
KGAO 120435Z AUTO 23006KT 10SM CLR 10/07 A3017 RMK AO2 T00970070
KGAO 120415Z AUTO 23006KT 10SM CLR 10/07 A3017 RMK AO2 T01010072
KGAO 120355Z AUTO 24005KT 10SM CLR 10/07 A3017 RMK AO2 T01000071
KGAO 120335Z AUTO 24005KT 10SM CLR 10/07 A3017 RMK AO2 T01040073
KGAO 120315Z AUTO 23006KT 10SM CLR 11/08 A3018 RMK AO2 T01080077
KGAO 120255Z AUTO 23005KT 10SM CLR 11/08 A3017 RMK AO2 T01100077
KGAO 120235Z AUTO 23005KT 10SM CLR 10/08 A3017 RMK AO2 T01010075
KGAO 120215Z AUTO 22006KT 10SM CLR 10/08 A3017 RMK AO2 T01040076
KGAO 120155Z AUTO 23005KT 10SM CLR 11/08 A3018 RMK AO2 T01060075
KGAO 120135Z AUTO 22006KT 10SM CLR 11/07 A3018 RMK AO2 T01050073
KGAO 120115Z AUTO 23006KT 10SM CLR 11/08 A3018 RMK AO2 T01100076
KGAO 120055Z AUTO 22007KT 10SM CLR 11/08 A3017 RMK AO2 T01070076
KGAO 120035Z AUTO 22006KT 10SM CLR 11/08 A3018 RMK AO2 T01070075
KGAO 120015Z AUTO 22006KT 10SM CLR 11/07 A3018 RMK AO2 T01060074
KGAO 112355Z AUTO 21006KT 10SM CLR 11/07 A3018 RMK AO2 T01110067 10181 20111
KGAO 112335Z AUTO 23006KT 10SM CLR 12/07 A3018 RMK AO2 T01210071
KGAO 112315Z AUTO 22008KT 10SM CLR 13/07 A3017 RMK AO2 T01290073
KGAO 112255Z AUTO 22007KT 10SM CLR 13/08 A3018 RMK AO2 T01320075
KGAO 112235Z AUTO 22006KT 10SM CLR 14/08 A3018 RMK AO2 T01410076
KGAO 112215Z AUTO 21009KT 10SM CLR 15/07 A3018 RMK AO2 T01510074
KGAO 112155Z AUTO 22011KT 10SM CLR 16/07 A3018 RMK AO2 T01590067
KGAO 112135Z AUTO 23009KT 10SM CLR 16/06 A3018 RMK AO2 T01610063
KGAO 112115Z AUTO 22009KT 10SM CLR 17/06 A3019 RMK AO2 T01700064
KGAO 112055Z AUTO 21009KT 10SM CLR 17/07 A3019 RMK AO2 T01710068
KGAO 112035Z AUTO 21008KT 10SM CLR 18/07 A3019 RMK AO2 T01750067
KGAO 112015Z AUTO 21009KT 10SM CLR 18/07 A3020 RMK AO2 T01810067
KGAO 111955Z AUTO 23008KT 10SM CLR 17/06 A3021 RMK AO2 T01740064
KGAO 111935Z AUTO 22008G14KT 10SM CLR 17/06 A3022 RMK AO2 T01740060
KGAO 111915Z AUTO 23011KT 10SM CLR 17/06 A3023 RMK AO2 T01720056
KGAO 111855Z AUTO 24010KT 10SM CLR 17/06 A3023 RMK AO2 T01690057
KGAO 111835Z AUTO 22009KT 10SM CLR 17/06 A3025 RMK AO2 T01680056
KGAO 111815Z AUTO 24008G14KT 10SM CLR 16/06 A3026 RMK AO2 T01630058
KGAO 111755Z AUTO 25008KT 10SM CLR 16/05 A3027 RMK AO2 T01640047 10165 21010
KGAO 111735Z AUTO 23009KT 10SM CLR 16/05 A3028 RMK AO2 T01620046
KGAO 111715Z AUTO 24009KT 10SM CLR 16/04 A3030 RMK AO2 T01590038
KGAO 111655Z AUTO 23007KT 10SM CLR 16/04 A3031 RMK AO2 T01550042
KGAO 111635Z AUTO 23009KT 10SM CLR 15/04 A3032 RMK AO2 T01510042
KGAO 111615Z AUTO 25009KT 10SM CLR 14/04 A3033 RMK AO2 T01420042
KGAO 111555Z AUTO 25007KT 10SM CLR 14/06 A3034 RMK AO2 T01380055
KGAO 111535Z AUTO 26006KT 10SM CLR 13/06 A3034 RMK AO2 T01300056
KGAO 111515Z AUTO 26007KT 10SM CLR 12/06 A3034 RMK AO2 T01210059
KGAO 111455Z AUTO 24005KT 10SM CLR 11/06 A3034 RMK AO2 T01050063
KGAO 111435Z AUTO 23004KT 10SM CLR 09/06 A3034 RMK AO2 T00900058
KGAO 111415Z AUTO 00000KT 10SM CLR 07/05 A3033 RMK AO2 T00650050
KGAO 111355Z AUTO 00000KT 10SM CLR 02/01 A3033 RMK AO2 T00220010
KGAO 111335Z AUTO 00000KT 10SM CLR 00/M01 A3033 RMK AO2 T00021007
KGAO 111315Z AUTO 00000KT 7SM CLR 00/M02 A3033 RMK AO2 T10051016
KGAO 111255Z AUTO 00000KT 5SM BR CLR 00/M01 A3034 RMK AO2 T00001011
KGAO 111235Z AUTO 00000KT 10SM CLR M01/M02 A3033 RMK AO2 T10071019
KGAO 111215Z AUTO 00000KT 10SM CLR M01/M02 A3033 RMK AO2 T10061017
KGAO 111155Z AUTO 00000KT 10SM CLR M01/M02 A3032 RMK AO2 T10081019 10010 21008
KGAO 111135Z AUTO 00000KT 10SM CLR M01/M02 A3032 RMK AO2 T10071018
KGAO 111115Z AUTO 00000KT 7SM CLR 00/M02 A3032 RMK AO2 T10051016
KGAO 111055Z AUTO 00000KT 7SM CLR 00/M02 A3033 RMK AO2 T10051016
KGAO 111035Z AUTO 00000KT 5SM BR CLR 00/M01 A3033 RMK AO2 T00001011
KGAO 111015Z AUTO 00000KT 10SM CLR 00/M01 A3033 RMK AO2 T00011007
KGAO 110955Z AUTO 00000KT 5SM BR CLR 00/M01 A3033 RMK AO2 T00021006
KGAO 110935Z AUTO 00000KT 10SM CLR 01/00 A3033 RMK AO2 T00080000
KGAO 110915Z AUTO 00000KT 1SM BR VV007 00/M01 A3033 RMK AO2 T00011008
KGAO 110855Z AUTO 00000KT 3SM BR CLR 00/M01 A3032 RMK AO2 T00011006
KGAO 110835Z AUTO 00000KT 1 1/4SM BR VV007 01/00 A3032 RMK AO2 VIS 1/2V5 T00051003
KGAO 110815Z AUTO 00000KT 1 3/4SM BR BKN002 01/00 A3032 RMK AO2 VIS 1/2V5 T00070000
KGAO 110755Z AUTO 00000KT M1/4SM FG OVC002 00/M01 A3032 RMK AO2 T00001007
KGAO 110735Z AUTO 00000KT M1/4SM FG OVC002 00/M01 A3033 RMK AO2 T00001008
KGAO 110715Z AUTO 00000KT 3/4SM BR OVC002 00/M01 A3033 RMK AO2 T00001008
KGAO 110655Z AUTO 00000KT M1/4SM FG OVC002 00/00 A3034 RMK AO2 T00031005
KGAO 110635Z AUTO 00000KT 1/4SM FG OVC002 01/00 A3034 RMK AO2 T00061002
KGAO 110615Z AUTO 00000KT 4SM BR BKN002 01/00 A3035 RMK AO2 T00081001
KGAO 110555Z AUTO 00000KT 1SM BR OVC002 01/00 A3035 RMK AO2 T00100000 10081 20010 401581011
KGAO 110535Z AUTO 00000KT 2SM BR CLR 01/00 A3035 RMK AO2 VIS 1 1/2V4 T00110000
KGAO 110515Z AUTO 00000KT 1SM BR VV007 02/01 A3035 RMK AO2 T00210008
KGAO 110455Z AUTO 00000KT 1/4SM FG VV002 02/01 A3036 RMK AO2 T00200007
KGAO 110435Z AUTO 00000KT 5SM BR CLR 02/01 A3036 RMK AO2 T00210008
KGAO 110415Z AUTO 00000KT 10SM CLR 03/01 A3036 RMK AO2 T00250010
KGAO 110355Z AUTO 00000KT 10SM CLR 04/02 A3037 RMK AO2 T00420024
KGAO 110335Z AUTO 00000KT 10SM CLR 04/02 A3037 RMK AO2 T00380016
KGAO 110315Z AUTO 24003KT 10SM CLR 05/03 A3038 RMK AO2 T00530028
KGAO 110255Z AUTO 25003KT 10SM CLR 06/03 A3037 RMK AO2 T00610032
KGAO 110235Z AUTO 26003KT 10SM CLR 06/03 A3037 RMK AO2 T00620030
KGAO 110220Z AUTO 26003KT 10SM CLR 07/04 A3037 RMK AO2 T00670036
KGAO 110155Z AUTO 24003KT 10SM CLR 07/03 A3036 RMK AO2 T00680032
KGAO 110135Z AUTO 00000KT 10SM CLR 06/03 A3037 RMK AO2 T00630029
KGAO 110115Z AUTO 00000KT 10SM CLR 07/03 A3036 RMK AO2 T00700030
KGAO 110055Z AUTO 23003KT 10SM CLR 07/03 A3036 RMK AO2 T00670032
KGAO 110035Z AUTO 22003KT 10SM CLR 07/04 A3035 RMK AO2 T00710039
KGAO 110015Z AUTO 22003KT 10SM CLR 08/04 A3035 RMK AO2 T00800040
KGAO 102355Z AUTO 20003KT 10SM CLR 08/04 A3034 RMK AO2 T00810035 10158 20078
KGAO 102335Z AUTO 21004KT 10SM CLR 08/03 A3035 RMK AO2 T00800031
KGAO 102315Z AUTO 22005KT 10SM CLR 10/03 A3035 RMK AO2 T01010026
KGAO 102255Z AUTO 21005KT 10SM CLR 11/03 A3034 RMK AO2 T01110025
KGAO 102235Z AUTO 21007KT 10SM CLR 12/03 A3034 RMK AO2 T01210025
KGAO 102215Z AUTO 21009KT 10SM CLR 13/01 A3035 RMK AO2 T01300012